createdAt,value
2024-03-14T00:03:50.054Z,6.33
2024-03-14T00:09:11.974Z,6.45
2024-03-14T00:14:33.103Z,6.53
2024-03-14T00:19:54.234Z,6.40
2024-03-14T00:25:16.079Z,6.33
2024-03-14T00:30:39.301Z,6.29
2024-03-14T00:36:03.175Z,6.34
2024-03-14T00:41:26.015Z,6.38
2024-03-14T00:46:51.325Z,6.45
2024-03-14T00:52:12.645Z,6.02
2024-03-14T00:57:34.222Z,6.34
2024-03-14T01:02:55.415Z,6.19
2024-03-14T01:08:17.901Z,6.49
2024-03-14T01:13:38.627Z,6.44
2024-03-14T01:18:59.815Z,6.39
2024-03-14T01:24:21.077Z,6.40
2024-03-14T01:29:42.157Z,6.28
2024-03-14T01:35:06.738Z,6.26
2024-03-14T01:40:27.518Z,6.19
2024-03-14T01:45:48.539Z,6.10
2024-03-14T01:51:09.670Z,6.05
2024-03-14T01:56:31.672Z,6.26
2024-03-14T02:01:52.561Z,6.37
2024-03-14T02:07:15.030Z,6.25
2024-03-14T02:12:36.111Z,6.09
2024-03-14T02:17:58.139Z,6.05
2024-03-14T02:23:19.884Z,6.28
2024-03-14T02:28:40.909Z,6.32
2024-03-14T02:34:02.806Z,6.30
2024-03-14T02:39:25.438Z,6.42
2024-03-14T02:44:49.281Z,6.35
2024-03-14T02:50:10.281Z,6.55
2024-03-14T02:55:31.824Z,6.34
2024-03-14T03:00:54.706Z,6.59
2024-03-14T03:06:16.718Z,6.62
2024-03-14T03:11:38.640Z,6.50
2024-03-14T03:16:59.920Z,6.60
2024-03-14T03:22:23.521Z,6.50
2024-03-14T03:27:44.338Z,6.47
2024-03-14T03:33:06.894Z,6.31
2024-03-14T03:38:28.259Z,6.50
2024-03-14T03:43:51.229Z,6.30
2024-03-14T03:49:12.152Z,6.29
2024-03-14T03:54:32.878Z,6.39
2024-03-14T03:59:57.035Z,6.29
2024-03-14T04:05:19.107Z,6.11
2024-03-14T04:10:40.221Z,6.35
2024-03-14T04:16:07.154Z,6.27
2024-03-14T04:21:28.571Z,6.16
2024-03-14T04:26:49.718Z,6.13
2024-03-14T04:32:14.291Z,5.72
2024-03-14T04:37:37.672Z,5.87
2024-03-14T04:43:01.107Z,5.94
2024-03-14T04:48:22.922Z,5.71
2024-03-14T04:53:44.785Z,5.97
2024-03-14T04:59:09.565Z,5.90
2024-03-14T05:04:30.948Z,6.00
2024-03-14T05:09:52.853Z,6.01
2024-03-14T05:15:15.645Z,6.19
2024-03-14T05:20:36.884Z,6.03
2024-03-14T05:25:58.847Z,6.17
2024-03-14T05:31:20.549Z,6.21
2024-03-14T05:36:41.928Z,6.25
2024-03-14T05:42:03.754Z,5.97
2024-03-14T05:47:28.310Z,6.08
2024-03-14T05:52:50.353Z,5.85
2024-03-14T05:58:11.279Z,5.56
2024-03-14T06:03:32.170Z,6.11
2024-03-14T06:08:57.415Z,6.04
2024-03-14T06:14:21.816Z,5.98
2024-03-14T06:19:43.216Z,6.04
2024-03-14T06:25:08.572Z,6.26
2024-03-14T06:30:30.996Z,6.32
2024-03-14T06:35:51.898Z,6.63
2024-03-14T06:41:14.796Z,7.03
2024-03-14T06:46:37.352Z,7.20
2024-03-14T06:52:01.998Z,7.40
2024-03-14T06:57:23.064Z,7.98
2024-03-14T07:02:45.481Z,8.35
2024-03-14T07:08:06.974Z,8.52
2024-03-14T07:13:28.692Z,8.93
2024-03-14T07:18:56.429Z,9.26
2024-03-14T07:24:18.929Z,9.48
2024-03-14T07:29:40.406Z,9.85
2024-03-14T07:35:03.204Z,10.16
2024-03-14T07:40:34.875Z,10.31
2024-03-14T07:45:56.254Z,10.49
2024-03-14T07:51:18.051Z,10.75
2024-03-14T07:56:39.591Z,10.77
2024-03-14T08:02:05.127Z,11.00
2024-03-14T08:07:27.333Z,11.16
2024-03-14T08:12:48.356Z,11.26
2024-03-14T08:18:12.581Z,11.14
2024-03-14T08:23:35.226Z,11.30
2024-03-14T08:28:57.620Z,11.50
2024-03-14T08:34:18.626Z,11.63
2024-03-14T08:39:39.883Z,11.85
2024-03-14T08:45:06.323Z,11.98
2024-03-14T08:50:28.744Z,11.98
2024-03-14T08:55:57.081Z,12.08
2024-03-14T09:01:20.368Z,12.31
2024-03-14T09:06:43.804Z,12.29
2024-03-14T09:12:26.192Z,12.61
2024-03-14T09:17:48.242Z,12.76
2024-03-14T09:23:17.471Z,12.80
2024-03-14T09:28:40.064Z,12.90
2024-03-14T09:34:01.526Z,12.88
2024-03-14T09:39:23.305Z,12.81
2024-03-14T09:44:45.002Z,12.83
2024-03-14T09:50:12.858Z,13.10
2024-03-14T09:55:36.101Z,13.03
2024-03-14T10:00:57.640Z,13.16
2024-03-14T10:06:22.608Z,13.20
2024-03-14T10:11:45.509Z,13.47
2024-03-14T10:17:10.417Z,13.33
2024-03-14T10:22:33.437Z,13.53
2024-03-14T10:28:05.755Z,13.42
2024-03-14T10:33:31.847Z,13.39
2024-03-14T10:38:55.827Z,13.38
2024-03-14T10:44:19.975Z,13.42
2024-03-14T10:49:46.617Z,13.43
2024-03-14T10:55:14.224Z,13.31
2024-03-14T11:00:36.331Z,13.41
2024-03-14T11:05:57.940Z,13.34
2024-03-14T11:11:20.428Z,13.52
2024-03-14T11:16:45.772Z,13.42
2024-03-14T11:22:07.566Z,13.30
2024-03-14T11:27:30.361Z,13.21
2024-03-14T11:32:58.706Z,13.25
2024-03-14T11:38:22.279Z,13.46
2024-03-14T11:43:43.168Z,13.32
2024-03-14T11:49:15.612Z,13.26
2024-03-14T11:54:37.236Z,13.23
2024-03-14T12:00:09.464Z,13.28
2024-03-14T12:05:30.335Z,13.24
2024-03-14T12:10:57.007Z,13.17
2024-03-14T12:16:19.783Z,13.04
2024-03-14T12:21:42.091Z,13.22
2024-03-14T12:27:04.507Z,12.93
2024-03-14T12:32:25.844Z,12.87
2024-03-14T12:37:49.830Z,13.00
2024-03-14T12:43:11.180Z,12.91
2024-03-14T12:48:32.247Z,12.92
2024-03-14T12:54:02.018Z,12.88
2024-03-14T12:59:30.855Z,12.94
2024-03-14T13:04:55.208Z,13.04
2024-03-14T13:10:20.528Z,12.79
2024-03-14T13:15:42.690Z,12.91
2024-03-14T13:21:04.669Z,12.94
2024-03-14T13:26:27.975Z,12.72
2024-03-14T13:31:48.905Z,12.67
2024-03-14T13:37:11.032Z,12.87
2024-03-14T13:42:32.258Z,12.60
2024-03-14T13:47:56.469Z,12.83
2024-03-14T13:58:47.841Z,12.80
2024-03-14T14:04:09.412Z,12.75
2024-03-14T14:09:33.748Z,12.73
2024-03-14T14:15:02.992Z,12.72
2024-03-14T14:20:33.010Z,12.60
2024-03-14T14:26:00.279Z,12.38
2024-03-14T14:31:28.786Z,12.25
2024-03-14T14:36:49.997Z,12.01
2024-03-14T14:42:17.743Z,12.12
2024-03-14T14:47:43.957Z,12.01
2024-03-14T14:53:08.047Z,12.18
2024-03-14T14:58:30.360Z,12.13
2024-03-14T15:03:55.554Z,12.01
2024-03-14T15:09:17.987Z,12.06
2024-03-14T15:14:43.059Z,11.92
2024-03-14T15:20:06.627Z,11.93
2024-03-14T15:25:28.061Z,11.87
2024-03-14T15:30:49.903Z,11.64
2024-03-14T15:36:18.772Z,11.67
2024-03-14T15:41:42.177Z,11.78
2024-03-14T15:47:03.356Z,11.72
2024-03-14T15:52:26.151Z,11.93
2024-03-14T15:57:48.089Z,11.91
2024-03-14T16:03:09.779Z,11.90
2024-03-14T16:08:45.156Z,11.78
2024-03-14T16:14:09.926Z,11.76
2024-03-14T16:19:32.963Z,11.72
2024-03-14T16:24:55.708Z,11.51
2024-03-14T16:30:19.558Z,11.49
2024-03-14T16:35:42.378Z,11.32
2024-03-14T16:41:08.143Z,11.33
2024-03-14T16:46:31.259Z,11.21
2024-03-14T16:51:52.478Z,11.06
2024-03-14T16:57:14.492Z,10.89
2024-03-14T17:02:38.791Z,10.94
2024-03-14T17:08:00.179Z,10.85
2024-03-14T17:13:21.891Z,10.61
2024-03-14T17:18:43.566Z,10.75
2024-03-14T17:24:06.068Z,10.73
2024-03-14T17:29:30.781Z,10.72
2024-03-14T17:34:53.340Z,10.55
2024-03-14T17:40:20.689Z,10.30
2024-03-14T17:46:08.309Z,10.55
2024-03-14T17:51:31.048Z,10.51
2024-03-14T17:57:01.321Z,10.54
2024-03-14T18:02:25.890Z,10.45
2024-03-14T18:07:48.081Z,10.36
2024-03-14T18:18:37.591Z,10.44
2024-03-14T18:24:04.734Z,10.42
2024-03-14T18:29:32.268Z,10.42
2024-03-14T18:34:56.173Z,10.32
2024-03-14T18:40:26.127Z,10.28
2024-03-14T18:45:48.263Z,10.15
2024-03-14T18:51:11.954Z,10.29
2024-03-14T18:56:36.807Z,10.16
2024-03-14T19:01:58.284Z,10.24
2024-03-14T19:07:19.649Z,10.06
2024-03-14T19:12:42.408Z,10.02
2024-03-14T19:18:05.282Z,10.15
2024-03-14T19:23:30.565Z,10.13
2024-03-14T19:28:53.009Z,10.10
2024-03-14T19:34:14.304Z,10.07
2024-03-14T19:39:35.634Z,10.05
2024-03-14T19:45:08.981Z,10.12
2024-03-14T19:50:31.648Z,10.09
2024-03-14T19:55:54.082Z,10.00
2024-03-14T20:01:15.642Z,10.10
2024-03-14T20:06:37.452Z,10.05
2024-03-14T20:11:59.243Z,9.97
2024-03-14T20:17:20.324Z,10.05
2024-03-14T20:22:42.284Z,9.95
2024-03-14T20:28:06.010Z,9.97
2024-03-14T20:33:30.297Z,10.02
2024-03-14T20:44:19.778Z,9.83
2024-03-14T20:49:43.569Z,9.77
2024-03-14T21:00:41.519Z,9.88
2024-03-14T21:06:04.086Z,9.96
2024-03-14T21:11:25.180Z,9.79
2024-03-14T21:16:46.852Z,9.68
2024-03-14T21:22:12.517Z,9.74
2024-03-14T21:27:33.784Z,9.75
2024-03-14T21:32:54.821Z,9.70
2024-03-14T21:38:15.883Z,9.82
2024-03-14T21:43:37.015Z,9.78
2024-03-14T21:48:58.471Z,9.70
2024-03-14T21:54:23.981Z,9.72
2024-03-14T21:59:45.466Z,9.73
2024-03-14T22:05:06.515Z,9.60
2024-03-14T22:10:27.864Z,9.64
2024-03-14T22:15:49.515Z,9.49
2024-03-14T22:21:10.954Z,9.65
2024-03-14T22:26:32.438Z,9.49
2024-03-14T22:31:54.830Z,9.55
2024-03-14T22:37:16.873Z,9.53
2024-03-14T22:42:41.086Z,9.57
2024-03-14T22:48:02.285Z,9.29
2024-03-14T22:53:23.812Z,9.47
2024-03-14T22:58:45.865Z,9.50
2024-03-14T23:04:10.342Z,9.58
2024-03-14T23:09:31.763Z,9.45
2024-03-14T23:14:52.664Z,9.63
2024-03-14T23:20:14.037Z,9.37
2024-03-14T23:25:36.042Z,9.52
2024-03-14T23:30:57.589Z,9.46
2024-03-14T23:36:18.579Z,9.64
2024-03-14T23:41:40.004Z,9.63
2024-03-14T23:47:00.964Z,9.51
2024-03-14T23:52:21.998Z,9.67
2024-03-14T23:57:46.188Z,9.47
